Tatui, Brazil
Current Conditions -  °F | °C
As of 11:00 AM on Saturday 22 Nov 2014 (Local Time) from SBKP Reporting Station
Clear Clear  
Wind Chill: 79°   Ceiling: Unl
Heat Index: 81°   Visibility: 6mi
Dew Point: 66°   Wind: 7mph
Humidity: 65%   Direction: 280°W
Pressure: 29.97"   Gusts: NA
Location:  23.35°S, 47.86°W
Report Text: SBKP 221300Z 28006KT CAVOK 26/19 Q1015
Loading
Personal Weather Stations






























Interactive Weather Map New forecast layout! Learn more

10-Day Weather Forecast

Advertisements
Track Severe Weather on mobile